createdAt,value
2019-03-22T00:04:58.080Z,8.23
2019-03-22T00:10:04.038Z,9.13
2019-03-22T00:15:10.266Z,6.23
2019-03-22T00:20:16.116Z,8.13
2019-03-22T00:25:21.965Z,7.40
2019-03-22T00:30:27.813Z,12.87
2019-03-22T00:35:33.648Z,12.43
2019-03-22T00:40:39.505Z,14.83
2019-03-22T00:45:45.361Z,11.67
2019-03-22T00:50:51.170Z,8.83
2019-03-22T00:55:56.996Z,8.70
2019-03-22T01:01:02.830Z,9.83
2019-03-22T01:06:09.732Z,8.90
2019-03-22T01:11:15.788Z,9.40
2019-03-22T01:16:21.644Z,8.37
2019-03-22T01:21:27.591Z,11.40
2019-03-22T01:26:33.403Z,9.70
2019-03-22T01:31:39.256Z,8.33
2019-03-22T01:36:45.103Z,8.87
2019-03-22T01:41:52.067Z,6.87
2019-03-22T01:46:57.886Z,7.50
2019-03-22T01:52:03.812Z,8.27
2019-03-22T01:57:09.647Z,9.20
2019-03-22T02:02:15.496Z,6.67
2019-03-22T02:07:21.343Z,7.27
2019-03-22T02:12:30.107Z,8.40
2019-03-22T02:17:36.984Z,8.83
2019-03-22T02:22:42.839Z,7.77
2019-03-22T02:27:48.711Z,7.97
2019-03-22T02:32:54.543Z,8.53
2019-03-22T02:38:00.445Z,8.87
2019-03-22T02:43:06.284Z,9.43
2019-03-22T02:48:12.117Z,7.73
2019-03-22T02:53:17.960Z,11.20
2019-03-22T02:58:23.801Z,9.20
2019-03-22T03:03:29.623Z,10.70
2019-03-22T03:08:35.472Z,7.93
2019-03-22T03:13:41.315Z,8.30
2019-03-22T03:18:47.177Z,8.20
2019-03-22T03:23:53.007Z,8.80
2019-03-22T03:28:58.848Z,5.97
2019-03-22T03:34:04.804Z,11.23
2019-03-22T03:39:10.699Z,8.13
2019-03-22T03:44:16.554Z,9.80
2019-03-22T03:49:22.391Z,8.40
2019-03-22T03:54:28.279Z,8.07
2019-03-22T03:59:34.125Z,8.57
2019-03-22T04:04:39.976Z,9.47
2019-03-22T04:09:45.844Z,6.80
2019-03-22T04:14:51.689Z,8.03
2019-03-22T04:19:57.588Z,6.30
2019-03-22T04:25:03.434Z,6.60
2019-03-22T04:30:09.357Z,9.80
2019-03-22T04:35:16.283Z,7.47
2019-03-22T04:40:26.540Z,8.37
2019-03-22T04:45:33.800Z,7.37
2019-03-22T04:50:42.031Z,7.70
2019-03-22T04:55:52.591Z,13.53
2019-03-22T05:00:59.755Z,7.40
2019-03-22T05:06:07.560Z,7.53
2019-03-22T05:11:15.398Z,7.97
2019-03-22T05:16:22.751Z,7.53
2019-03-22T05:21:30.198Z,11.27
2019-03-22T05:26:38.345Z,9.23
2019-03-22T05:32:13.700Z,8.37
2019-03-22T05:37:19.540Z,8.77
2019-03-22T05:42:25.387Z,9.43
2019-03-22T05:47:31.226Z,7.17
2019-03-22T05:52:37.079Z,7.70
2019-03-22T05:57:42.899Z,9.63
2019-03-22T06:02:48.769Z,8.67
2019-03-22T06:07:54.616Z,7.53
2019-03-22T06:13:00.452Z,9.30
2019-03-22T06:18:06.307Z,9.80
2019-03-22T06:23:12.153Z,8.93
2019-03-22T06:28:18.012Z,9.90
2019-03-22T06:33:24.018Z,7.03
2019-03-22T06:38:30.057Z,7.63
2019-03-22T06:43:36.229Z,6.07
2019-03-22T06:48:42.456Z,6.40
2019-03-22T06:53:49.250Z,9.47
2019-03-22T06:58:55.086Z,7.13
2019-03-22T07:04:01.053Z,5.13
2019-03-22T07:09:12.471Z,12.40
2019-03-22T07:14:19.330Z,6.77
2019-03-22T07:19:26.379Z,7.33
2019-03-22T07:24:32.230Z,9.37
2019-03-22T07:29:38.089Z,11.67
2019-03-22T07:34:43.950Z,10.43
2019-03-22T07:39:49.806Z,11.83
2019-03-22T07:44:55.689Z,8.40
2019-03-22T07:50:01.535Z,7.67
2019-03-22T07:55:07.635Z,13.23
2019-03-22T08:00:13.907Z,13.73
2019-03-22T08:05:19.772Z,16.47
2019-03-22T08:10:25.631Z,13.00
2019-03-22T08:15:33.055Z,12.07
2019-03-22T08:20:39.120Z,9.93
2019-03-22T08:25:45.055Z,10.83
2019-03-22T08:30:50.937Z,12.83
2019-03-22T08:35:56.815Z,9.50
2019-03-22T08:41:02.679Z,10.73
2019-03-22T08:46:08.541Z,9.73
2019-03-22T08:51:14.391Z,8.20
2019-03-22T08:56:20.249Z,9.90
2019-03-22T09:01:26.172Z,9.17
2019-03-22T09:06:31.986Z,9.53
2019-03-22T09:11:37.934Z,11.10
2019-03-22T09:16:43.837Z,8.00
2019-03-22T09:21:49.642Z,9.27
2019-03-22T09:26:56.369Z,10.03
2019-03-22T09:32:02.243Z,8.73
2019-03-22T09:37:09.068Z,10.37
2019-03-22T09:42:15.176Z,9.17
2019-03-22T09:47:21.035Z,9.93
2019-03-22T09:52:26.913Z,9.20
2019-03-22T09:57:32.745Z,9.07
2019-03-22T10:02:38.626Z,11.70
2019-03-22T10:07:44.491Z,11.37
2019-03-22T10:12:50.315Z,9.63
2019-03-22T10:17:56.198Z,10.93
2019-03-22T10:23:02.068Z,10.23
2019-03-22T10:28:08.046Z,9.63
2019-03-22T10:33:22.616Z,9.68
2019-03-22T10:38:31.002Z,8.43
2019-03-22T10:43:28.939Z,11.97
2019-03-22T10:48:34.838Z,6.60
2019-03-22T10:53:40.652Z,9.68
2019-03-22T10:58:46.511Z,8.05
2019-03-22T11:03:52.486Z,6.83
2019-03-22T11:08:58.410Z,8.80
2019-03-22T11:14:04.275Z,5.12
2019-03-22T11:19:10.163Z,9.50
2019-03-22T11:24:16.024Z,4.10
2019-03-22T11:29:21.871Z,5.47
2019-03-22T11:34:27.750Z,4.58
2019-03-22T11:39:33.615Z,7.15
2019-03-22T11:44:39.459Z,7.70
2019-03-22T11:49:45.336Z,7.60
2019-03-22T11:54:51.208Z,5.08
2019-03-22T11:59:57.067Z,5.83
2019-03-22T12:05:02.940Z,5.97
2019-03-22T12:10:08.943Z,6.92
2019-03-22T12:15:15.208Z,5.47
2019-03-22T12:20:21.515Z,5.87
2019-03-22T12:25:27.370Z,6.40
2019-03-22T12:30:33.340Z,9.13
2019-03-22T12:35:39.211Z,7.80
2019-03-22T12:40:45.088Z,7.42
2019-03-22T12:45:50.958Z,6.83
2019-03-22T12:50:56.804Z,5.92
2019-03-22T12:56:02.687Z,8.90
2019-03-22T13:01:10.233Z,7.50
2019-03-22T13:06:16.265Z,7.85
2019-03-22T13:11:22.473Z,6.85
2019-03-22T13:16:28.800Z,5.42
2019-03-22T13:21:34.787Z,5.17
2019-03-22T13:26:41.024Z,6.28
2019-03-22T13:31:47.110Z,6.58
2019-03-22T13:36:53.988Z,5.08
2019-03-22T13:41:59.850Z,4.20
2019-03-22T13:47:06.955Z,4.10
2019-03-22T13:52:14.307Z,5.10
2019-03-22T13:57:20.491Z,3.75
2019-03-22T14:02:26.854Z,5.83
2019-03-22T14:07:32.982Z,4.12
2019-03-22T14:12:43.552Z,4.10
2019-03-22T14:17:49.938Z,5.37
2019-03-22T14:22:55.971Z,4.33
2019-03-22T14:28:01.847Z,3.58
2019-03-22T14:33:13.226Z,3.50
2019-03-22T14:38:16.599Z,5.78
2019-03-22T14:43:23.117Z,4.08
2019-03-22T14:48:29.852Z,4.65
2019-03-22T14:53:36.192Z,4.42
2019-03-22T14:58:43.102Z,4.55
2019-03-22T15:03:49.619Z,4.20
2019-03-22T15:08:55.472Z,4.97
2019-03-22T15:14:10.510Z,3.47
2019-03-22T15:19:50.849Z,3.17
2019-03-22T15:25:14.660Z,2.92
2019-03-22T15:30:38.443Z,4.58
2019-03-22T15:35:53.181Z,3.55
2019-03-22T15:41:00.126Z,4.92
2019-03-22T15:46:06.066Z,4.25
2019-03-22T15:51:12.068Z,5.78
2019-03-22T15:56:18.313Z,3.72
2019-03-22T16:01:24.231Z,4.53
2019-03-22T16:06:30.077Z,3.35
2019-03-22T16:11:35.944Z,4.60
2019-03-22T16:16:41.850Z,4.80
2019-03-22T16:21:47.699Z,4.37
2019-03-22T16:26:53.682Z,7.80
2019-03-22T16:31:59.564Z,4.47
2019-03-22T16:37:06.097Z,7.83
2019-03-22T16:42:11.990Z,6.37
2019-03-22T16:47:18.682Z,5.90
2019-03-22T16:52:25.412Z,7.33
2019-03-22T16:57:31.316Z,5.73
2019-03-22T17:02:38.156Z,8.40
2019-03-22T17:07:44.290Z,7.40
2019-03-22T17:12:50.208Z,5.63
2019-03-22T17:17:56.115Z,9.53
2019-03-22T17:23:01.964Z,11.20
2019-03-22T17:28:07.815Z,10.07
2019-03-22T17:33:13.683Z,20.70
2019-03-22T17:38:19.616Z,22.63
2019-03-22T17:43:25.534Z,20.03
2019-03-22T17:48:32.373Z,20.30
2019-03-22T17:53:38.275Z,22.30
2019-03-22T17:58:44.139Z,35.63
2019-03-22T18:03:50.073Z,55.80
2019-03-22T18:08:56.053Z,47.83
2019-03-22T18:14:01.914Z,32.37
2019-03-22T18:19:09.485Z,30.10
2019-03-22T18:24:15.320Z,24.33
2019-03-22T18:29:21.176Z,17.90
2019-03-22T18:34:34.233Z,13.47
2019-03-22T18:39:34.756Z,17.07
2019-03-22T18:44:40.629Z,14.10
2019-03-22T18:49:46.538Z,15.77
2019-03-22T18:54:52.389Z,11.97
2019-03-22T18:59:58.267Z,9.03
2019-03-22T19:05:04.646Z,10.43
2019-03-22T19:10:11.975Z,7.30
2019-03-22T19:15:21.301Z,7.93
2019-03-22T19:20:27.464Z,7.10
2019-03-22T19:25:33.371Z,6.67
2019-03-22T19:30:39.271Z,8.50
2019-03-22T19:35:45.749Z,11.80
2019-03-22T19:40:52.240Z,23.87
2019-03-22T19:45:58.399Z,15.57
2019-03-22T19:51:04.355Z,14.47
2019-03-22T19:56:10.223Z,12.83
2019-03-22T20:01:17.130Z,12.07
2019-03-22T20:06:23.283Z,16.53
2019-03-22T20:11:29.198Z,12.17
2019-03-22T20:16:35.019Z,21.63
2019-03-22T20:21:41.380Z,17.40
2019-03-22T20:26:47.298Z,19.47
2019-03-22T20:31:53.611Z,17.37
2019-03-22T20:36:59.452Z,19.63
2019-03-22T20:42:05.367Z,15.17
2019-03-22T20:47:11.453Z,14.57
2019-03-22T20:52:17.375Z,16.47
2019-03-22T20:57:23.416Z,15.27
2019-03-22T21:02:30.552Z,15.57
2019-03-22T21:07:38.882Z,15.63
2019-03-22T21:12:45.700Z,13.67
2019-03-22T21:17:52.407Z,8.97
2019-03-22T21:23:00.130Z,8.43
2019-03-22T21:28:06.032Z,8.17
2019-03-22T21:33:11.928Z,6.93
2019-03-22T21:38:17.779Z,7.43
2019-03-22T21:43:23.743Z,6.57
2019-03-22T21:48:29.589Z,5.67
2019-03-22T21:53:35.439Z,8.43
2019-03-22T21:58:41.316Z,6.90
2019-03-22T22:03:48.211Z,10.77
2019-03-22T22:08:54.054Z,7.20
2019-03-22T22:13:59.919Z,9.13
2019-03-22T22:19:05.901Z,12.37
2019-03-22T22:24:11.753Z,9.10
2019-03-22T22:29:17.604Z,10.97
2019-03-22T22:34:23.463Z,14.63
2019-03-22T22:39:29.615Z,23.37
2019-03-22T22:44:35.632Z,15.87
2019-03-22T22:49:41.815Z,14.90
2019-03-22T22:54:48.431Z,12.10
2019-03-22T22:59:55.302Z,10.00
2019-03-22T23:05:01.364Z,9.40
2019-03-22T23:10:08.821Z,8.87
2019-03-22T23:15:15.392Z,11.83
2019-03-22T23:20:22.554Z,9.43
2019-03-22T23:25:29.035Z,8.73
2019-03-22T23:30:35.451Z,8.30
2019-03-22T23:35:41.323Z,8.47
2019-03-22T23:40:48.167Z,9.80
2019-03-22T23:45:54.280Z,17.93
2019-03-22T23:51:00.357Z,14.00
2019-03-22T23:56:07.117Z,9.60
